createdAt,value
2023-03-04T00:00:08.834Z,101302.69
2023-03-04T00:02:36.802Z,101286.53
2023-03-04T00:05:04.975Z,101294.00
2023-03-04T00:07:32.580Z,101290.63
2023-03-04T00:10:02.359Z,101294.22
2023-03-04T00:12:30.610Z,101291.75
2023-03-04T00:14:58.507Z,101289.19
2023-03-04T00:17:26.667Z,101293.56
2023-03-04T00:19:54.646Z,101295.34
2023-03-04T00:22:22.825Z,101290.22
2023-03-04T00:24:51.208Z,101291.66
2023-03-04T00:27:19.279Z,101287.84
2023-03-04T00:29:47.126Z,101293.38
2023-03-04T00:32:16.330Z,101290.72
2023-03-04T00:34:44.478Z,101284.56
2023-03-04T00:37:12.541Z,101290.28
2023-03-04T00:39:40.040Z,101282.91
2023-03-04T00:42:08.155Z,101282.75
2023-03-04T00:44:36.390Z,101289.63
2023-03-04T00:47:04.586Z,101289.63
2023-03-04T00:49:32.451Z,101280.50
2023-03-04T00:52:00.413Z,101283.22
2023-03-04T00:54:28.819Z,101289.63
2023-03-04T00:56:57.314Z,101281.34
2023-03-04T00:59:25.042Z,101285.06
2023-03-04T01:01:53.541Z,101282.00
2023-03-04T01:04:21.528Z,101280.94
2023-03-04T01:06:49.921Z,101285.91
2023-03-04T01:09:17.365Z,101284.31
2023-03-04T01:11:44.992Z,101276.69
2023-03-04T01:14:15.999Z,101276.97
2023-03-04T01:16:43.978Z,101274.72
2023-03-04T01:19:12.144Z,101274.72
2023-03-04T01:21:40.130Z,101272.41
2023-03-04T01:24:08.469Z,101263.03
2023-03-04T01:26:39.342Z,101266.72
2023-03-04T01:29:06.903Z,101264.38
2023-03-04T01:31:37.134Z,101264.25
2023-03-04T01:34:04.780Z,101264.63
2023-03-04T01:36:32.768Z,101260.47
2023-03-04T01:39:00.213Z,101266.72
2023-03-04T01:41:30.936Z,101265.25
2023-03-04T01:44:00.853Z,101253.41
2023-03-04T01:46:29.766Z,101251.06
2023-03-04T01:48:57.489Z,101252.16
2023-03-04T01:51:24.794Z,101254.97
2023-03-04T01:53:53.655Z,101254.34
2023-03-04T01:56:45.104Z,101254.72
2023-03-04T01:59:17.024Z,101251.44
2023-03-04T02:02:08.336Z,101254.38
2023-03-04T02:04:35.927Z,101253.72
2023-03-04T02:07:04.366Z,101249.78
2023-03-04T02:09:31.156Z,101241.34
2023-03-04T02:11:59.036Z,101247.44
2023-03-04T02:14:26.227Z,101241.88
2023-03-04T02:16:53.673Z,101237.44
2023-03-04T02:19:30.054Z,101239.31
2023-03-04T02:21:57.982Z,101238.69
2023-03-04T02:24:31.754Z,101235.81
2023-03-04T02:27:00.585Z,101231.84
2023-03-04T02:29:27.735Z,101235.56
2023-03-04T02:31:55.611Z,101229.75
2023-03-04T02:34:24.853Z,101229.38
2023-03-04T02:36:52.525Z,101227.84
2023-03-04T02:39:26.452Z,101225.28
2023-03-04T02:41:54.644Z,101224.38
2023-03-04T02:44:24.534Z,101224.06
2023-03-04T02:46:51.821Z,101222.16
2023-03-04T02:49:19.122Z,101223.94
2023-03-04T02:51:47.186Z,101224.94
2023-03-04T02:54:19.566Z,101216.78
2023-03-04T02:57:09.154Z,101219.50
2023-03-04T02:59:37.944Z,101217.66
2023-03-04T03:02:05.575Z,101212.00
2023-03-04T03:04:32.795Z,101217.13
2023-03-04T03:07:00.724Z,101213.19
2023-03-04T03:09:28.903Z,101205.34
2023-03-04T03:11:56.782Z,101210.41
2023-03-04T03:14:25.692Z,101209.59
2023-03-04T03:16:54.169Z,101208.00
2023-03-04T03:19:25.643Z,101207.03
2023-03-04T03:21:53.689Z,101209.44
2023-03-04T03:24:21.658Z,101213.44
2023-03-04T03:26:50.190Z,101211.50
2023-03-04T03:29:18.468Z,101207.34
2023-03-04T03:31:46.713Z,101207.16
2023-03-04T03:34:14.761Z,101204.47
2023-03-04T03:36:45.969Z,101204.38
2023-03-04T03:39:15.648Z,101207.81
2023-03-04T03:41:43.408Z,101211.19
2023-03-04T03:44:11.116Z,101206.94
2023-03-04T03:46:39.039Z,101207.03
2023-03-04T03:49:07.117Z,101209.69
2023-03-04T03:51:34.637Z,101207.81
2023-03-04T03:54:02.736Z,101209.25
2023-03-04T03:56:30.871Z,101210.69
2023-03-04T03:58:59.023Z,101208.38
2023-03-04T04:01:27.041Z,101205.63
2023-03-04T04:03:55.076Z,101203.16
2023-03-04T04:06:23.695Z,101199.78
2023-03-04T04:08:51.636Z,101202.28
2023-03-04T04:11:19.545Z,101204.75
2023-03-04T04:13:47.577Z,101205.44
2023-03-04T04:16:15.941Z,101217.03
2023-03-04T04:18:44.848Z,101218.28
2023-03-04T04:21:13.070Z,101218.44
2023-03-04T04:23:40.928Z,101218.44
2023-03-04T04:26:09.162Z,101221.38
2023-03-04T04:28:37.128Z,101212.53
2023-03-04T04:31:09.228Z,101222.59
2023-03-04T04:33:37.217Z,101230.09
2023-03-04T04:36:06.289Z,101223.84
2023-03-04T04:38:34.263Z,101219.50
2023-03-04T04:41:02.280Z,101224.72
2023-03-04T04:43:30.269Z,101226.22
2023-03-04T04:46:00.439Z,101233.63
2023-03-04T04:48:34.900Z,101225.00
2023-03-04T04:51:02.754Z,101221.56
2023-03-04T04:53:31.081Z,101229.03
2023-03-04T04:55:59.365Z,101220.59
2023-03-04T04:58:27.431Z,101224.13
2023-03-04T05:00:58.250Z,101229.75
2023-03-04T05:03:26.347Z,101225.66
2023-03-04T05:05:54.466Z,101223.13
2023-03-04T05:08:22.511Z,101230.81
2023-03-04T05:10:50.604Z,101227.81
2023-03-04T05:13:19.564Z,101225.09
2023-03-04T05:15:47.651Z,101225.78
2023-03-04T05:18:15.199Z,101227.75
2023-03-04T05:20:42.765Z,101227.03
2023-03-04T05:23:10.766Z,101234.69
2023-03-04T05:25:38.786Z,101228.00
2023-03-04T05:28:07.355Z,101225.47
2023-03-04T05:30:35.187Z,101227.03
2023-03-04T05:33:02.742Z,101227.91
2023-03-04T05:35:30.376Z,101224.22
2023-03-04T05:37:58.575Z,101218.38
2023-03-04T05:40:27.246Z,101226.53
2023-03-04T05:42:58.966Z,101222.31
2023-03-04T05:45:26.671Z,101234.66
2023-03-04T05:47:54.694Z,101225.09
2023-03-04T05:50:23.332Z,101230.75
2023-03-04T05:52:51.904Z,101235.53
2023-03-04T05:55:20.415Z,101235.88
2023-03-04T05:57:48.839Z,101235.06
2023-03-04T06:00:18.770Z,101244.50
2023-03-04T06:02:46.808Z,101242.13
2023-03-04T06:05:14.965Z,101241.16
2023-03-04T06:07:45.536Z,101234.47
2023-03-04T06:10:14.994Z,101236.03
2023-03-04T06:12:42.798Z,101242.13
2023-03-04T06:15:13.928Z,101245.66
2023-03-04T06:17:44.706Z,101245.66
2023-03-04T06:20:14.292Z,101248.66
2023-03-04T06:22:41.821Z,101244.53
2023-03-04T06:25:11.467Z,101244.88
2023-03-04T06:27:39.563Z,101246.44
2023-03-04T06:30:11.965Z,101248.75
2023-03-04T06:32:40.423Z,101254.22
2023-03-04T06:35:11.302Z,101255.63
2023-03-04T06:37:39.535Z,101252.84
2023-03-04T06:40:08.403Z,101260.38
2023-03-04T06:42:44.785Z,101258.72
2023-03-04T06:45:14.526Z,101258.28
2023-03-04T06:47:43.277Z,101262.31
2023-03-04T06:50:14.011Z,101270.59
2023-03-04T06:52:41.858Z,101261.28
2023-03-04T06:55:13.085Z,101269.09
2023-03-04T06:57:41.489Z,101265.81
2023-03-04T07:00:13.287Z,101278.41
2023-03-04T07:02:40.856Z,101269.47
2023-03-04T07:05:10.131Z,101271.50
2023-03-04T07:07:38.053Z,101271.13
2023-03-04T07:10:07.176Z,101271.72
2023-03-04T07:27:14.406Z,101277.38
2023-03-04T07:29:42.819Z,101275.38
2023-03-04T07:32:11.609Z,101265.59
2023-03-04T07:34:40.844Z,101278.94
2023-03-04T07:37:10.407Z,101273.53
2023-03-04T07:39:38.317Z,101274.13
2023-03-04T07:42:06.899Z,101269.53
2023-03-04T07:44:35.447Z,101274.44
2023-03-04T07:47:03.785Z,101279.28
2023-03-04T07:49:32.784Z,101273.50
2023-03-04T07:52:05.275Z,101271.50
2023-03-04T07:54:53.397Z,101277.78
2023-03-04T07:57:20.918Z,101278.00
2023-03-04T07:59:49.040Z,101272.44
2023-03-04T08:02:16.875Z,101267.84
2023-03-04T08:04:44.926Z,101260.56
2023-03-04T08:07:13.032Z,101264.50
2023-03-04T08:09:42.499Z,101265.59
2023-03-04T08:12:10.107Z,101270.25
2023-03-04T08:14:37.669Z,101275.13
2023-03-04T08:17:05.163Z,101259.31
2023-03-04T08:19:32.948Z,101264.97
2023-03-04T08:22:00.947Z,101256.00
2023-03-04T08:24:29.623Z,101261.66
2023-03-04T08:26:57.065Z,101263.78
2023-03-04T08:29:24.741Z,101249.69
2023-03-04T08:32:08.147Z,101243.31
2023-03-04T08:34:39.333Z,101255.81
2023-03-04T08:37:07.235Z,101253.09
2023-03-04T08:39:36.161Z,101253.25
2023-03-04T08:42:04.035Z,101247.63
2023-03-04T08:44:34.606Z,101247.22
2023-03-04T08:47:02.682Z,101249.34
2023-03-04T08:49:30.567Z,101245.34
2023-03-04T08:51:58.000Z,101245.56
2023-03-04T08:54:25.589Z,101248.34
2023-03-04T08:56:53.908Z,101249.38
2023-03-04T08:59:22.045Z,101239.63
2023-03-04T09:01:49.986Z,101243.44
2023-03-04T09:04:17.732Z,101240.16
2023-03-04T09:06:45.680Z,101239.63
2023-03-04T09:09:13.577Z,101243.34
2023-03-04T09:11:41.165Z,101242.88
2023-03-04T09:14:09.146Z,101228.41
2023-03-04T09:16:37.465Z,101231.31
2023-03-04T09:19:05.154Z,101234.81
2023-03-04T09:21:33.049Z,101235.91
2023-03-04T09:24:01.795Z,101225.88
2023-03-04T09:26:29.893Z,101231.44
2023-03-04T09:28:58.791Z,101233.34
2023-03-04T09:31:26.888Z,101231.19
2023-03-04T09:33:54.734Z,101226.00
2023-03-04T09:36:21.914Z,101222.81
2023-03-04T09:38:49.664Z,101229.78
2023-03-04T09:41:25.424Z,101215.81
2023-03-04T09:43:53.789Z,101221.94
2023-03-04T09:46:32.865Z,101232.28
2023-03-04T09:49:00.440Z,101228.47
2023-03-04T09:51:46.269Z,101225.84
2023-03-04T09:54:23.405Z,101216.66
2023-03-04T09:56:50.451Z,101214.31
2023-03-04T09:59:43.816Z,101216.41
2023-03-04T10:02:22.110Z,101223.47
2023-03-04T10:04:54.581Z,101216.56
2023-03-04T10:07:27.334Z,101219.22
2023-03-04T10:10:03.602Z,101218.69
2023-03-04T10:12:31.992Z,101212.19
2023-03-04T10:15:04.997Z,101206.19
2023-03-04T10:17:43.365Z,101211.06
2023-03-04T10:20:15.208Z,101199.22
2023-03-04T10:22:53.634Z,101201.81
2023-03-04T10:25:26.827Z,101203.81
2023-03-04T10:28:02.996Z,101192.50
2023-03-04T10:30:48.934Z,101198.63
2023-03-04T10:33:18.257Z,101196.06
2023-03-04T10:35:50.682Z,101190.88
2023-03-04T10:38:21.671Z,101186.78
2023-03-04T10:40:48.436Z,101183.28
2023-03-04T10:43:20.213Z,101181.59
2023-03-04T10:45:46.994Z,101177.38
2023-03-04T10:48:23.506Z,101176.72
2023-03-04T10:50:51.122Z,101176.97
2023-03-04T10:54:09.324Z,101169.91
2023-03-04T10:56:37.228Z,101159.84
2023-03-04T10:59:36.189Z,101161.75
2023-03-04T11:02:17.928Z,101159.38
2023-03-04T11:04:55.791Z,101153.91
2023-03-04T11:07:34.104Z,101154.69
2023-03-04T11:10:12.194Z,101154.59
2023-03-04T11:12:39.744Z,101149.00
2023-03-04T11:15:24.404Z,101151.94
2023-03-04T11:18:06.155Z,101138.47
2023-03-04T11:20:33.827Z,101138.72
2023-03-04T11:23:33.088Z,101132.88
2023-03-04T11:26:02.965Z,101124.84
2023-03-04T11:28:52.848Z,101125.81
2023-03-04T11:31:48.556Z,101118.00
2023-03-04T11:34:27.663Z,101107.75
2023-03-04T11:37:28.608Z,101111.88
2023-03-04T11:40:30.130Z,101109.69
2023-03-04T11:42:59.891Z,101105.50
2023-03-04T11:46:06.068Z,101106.38
2023-03-04T11:49:04.834Z,101095.91
2023-03-04T11:51:40.802Z,101091.03
2023-03-04T11:54:49.744Z,101090.31
2023-03-04T11:57:46.922Z,101082.91
2023-03-04T12:00:35.927Z,101072.34
2023-03-04T12:03:22.473Z,101068.78
2023-03-04T12:06:12.642Z,101067.88
2023-03-04T12:08:51.481Z,101059.44
2023-03-04T12:11:40.340Z,101051.09
2023-03-04T12:14:23.037Z,101055.91
2023-03-04T12:16:53.043Z,101039.69
2023-03-04T12:19:33.497Z,101040.69
2023-03-04T12:22:09.073Z,101025.31
2023-03-04T12:24:41.916Z,101022.81
2023-03-04T12:27:24.787Z,101015.81
2023-03-04T12:30:05.659Z,101021.06
2023-03-04T12:32:50.952Z,101003.75
2023-03-04T12:35:25.341Z,101002.84
2023-03-04T12:38:02.976Z,101001.09
2023-03-04T12:41:00.470Z,100992.38
2023-03-04T12:43:42.058Z,100995.84
2023-03-04T12:46:27.840Z,100994.09
2023-03-04T12:49:18.080Z,100992.25
2023-03-04T12:52:12.713Z,100985.31
2023-03-04T12:55:01.462Z,100982.53
2023-03-04T12:57:33.166Z,100986.91
2023-03-04T13:00:15.397Z,100979.13
2023-03-04T13:02:48.186Z,100971.09
2023-03-04T13:05:33.551Z,100973.72
2023-03-04T13:08:22.004Z,100970.16
2023-03-04T13:10:50.922Z,100973.72
2023-03-04T13:13:41.041Z,100971.19
2023-03-04T13:16:08.140Z,100971.09
2023-03-04T13:18:36.613Z,100954.34
2023-03-04T13:21:12.747Z,100953.34
2023-03-04T13:23:40.489Z,100948.66
2023-03-04T13:26:30.475Z,100952.44
2023-03-04T13:29:19.355Z,100954.22
2023-03-04T13:32:12.000Z,100935.56
2023-03-04T13:34:42.070Z,100937.47
2023-03-04T13:37:30.052Z,100940.31
2023-03-04T13:40:23.453Z,100940.44
2023-03-04T13:42:51.711Z,100946.41
2023-03-04T13:45:36.856Z,100931.69
2023-03-04T13:48:05.825Z,100921.06
2023-03-04T13:50:37.444Z,100917.75
2023-03-04T13:53:23.897Z,100916.59
2023-03-04T13:56:05.285Z,100922.00
2023-03-04T13:58:32.848Z,100918.44
2023-03-04T14:01:00.779Z,100918.91
2023-03-04T14:03:30.217Z,100912.75
2023-03-04T14:06:30.571Z,100911.13
2023-03-04T14:08:58.562Z,100906.84
2023-03-04T14:11:28.367Z,100908.03
2023-03-04T14:13:56.689Z,100913.78
2023-03-04T14:16:26.372Z,100912.22
2023-03-04T14:19:01.497Z,100903.47
2023-03-04T14:21:29.142Z,100894.69
2023-03-04T14:24:02.474Z,100896.47
2023-03-04T14:26:31.188Z,100890.41
2023-03-04T14:28:59.746Z,100886.00
2023-03-04T14:31:30.712Z,100880.66
2023-03-04T14:34:02.423Z,100872.69
2023-03-04T14:36:33.166Z,100871.97
2023-03-04T14:39:02.762Z,100879.75
2023-03-04T14:41:40.502Z,100873.44
2023-03-04T14:44:29.122Z,100863.63
2023-03-04T14:47:08.356Z,100861.69
2023-03-04T14:49:39.990Z,100852.88
2023-03-04T14:52:07.752Z,100853.78
2023-03-04T14:54:39.477Z,100856.78
2023-03-04T14:57:36.213Z,100844.81
2023-03-04T15:00:22.420Z,100847.53
2023-03-04T15:02:50.902Z,100846.94
2023-03-04T15:05:32.605Z,100846.22
2023-03-04T15:08:05.261Z,100846.31
2023-03-04T15:10:36.556Z,100842.84
2023-03-04T15:13:07.750Z,100843.69
2023-03-04T15:15:45.051Z,100839.38
2023-03-04T15:18:30.405Z,100837.59
2023-03-04T15:20:58.131Z,100828.97
2023-03-04T15:23:26.243Z,100828.97
2023-03-04T15:25:54.479Z,100829.00
2023-03-04T15:28:21.274Z,100824.59
2023-03-04T15:30:49.449Z,100820.16
2023-03-04T15:33:17.900Z,100812.03
2023-03-04T15:35:55.362Z,100812.81
2023-03-04T15:38:22.684Z,100810.03
2023-03-04T15:40:53.962Z,100810.75
2023-03-04T15:43:22.931Z,100812.16
2023-03-04T15:45:50.510Z,100808.53
2023-03-04T15:48:18.638Z,100811.38
2023-03-04T15:50:51.807Z,100815.63
2023-03-04T15:53:45.817Z,100811.50
2023-03-04T15:56:48.167Z,100814.19
2023-03-04T15:59:15.496Z,100816.47
2023-03-04T16:01:42.590Z,100817.59
2023-03-04T16:04:17.230Z,100816.00
2023-03-04T16:06:45.873Z,100813.38
2023-03-04T16:09:15.213Z,100811.66
2023-03-04T16:11:47.018Z,100815.16
2023-03-04T16:14:14.749Z,100816.78
2023-03-04T16:16:47.033Z,100816.72
2023-03-04T16:19:15.616Z,100816.72
2023-03-04T16:21:43.594Z,100809.78
2023-03-04T16:24:19.269Z,100808.09
2023-03-04T16:26:46.553Z,100808.97
2023-03-04T16:29:14.131Z,100805.47
2023-03-04T16:31:42.323Z,100811.59
2023-03-04T16:34:09.962Z,100802.06
2023-03-04T16:36:37.908Z,100802.88
2023-03-04T16:39:07.267Z,100807.06
2023-03-04T16:41:37.655Z,100806.09
2023-03-04T16:44:06.945Z,100806.00
2023-03-04T16:46:34.512Z,100806.66
2023-03-04T16:49:02.091Z,100800.28
2023-03-04T16:51:31.897Z,100807.72
2023-03-04T16:54:02.271Z,100805.69
2023-03-04T16:56:30.454Z,100803.56
2023-03-04T16:58:57.879Z,100803.09
2023-03-04T17:01:29.282Z,100802.56
2023-03-04T17:03:56.968Z,100799.69
2023-03-04T17:06:25.167Z,100803.75
2023-03-04T17:08:55.616Z,100800.84
2023-03-04T17:11:24.088Z,100793.66
2023-03-04T17:13:51.641Z,100799.69
2023-03-04T17:16:18.905Z,100802.91
2023-03-04T17:18:46.169Z,100809.53
2023-03-04T17:21:15.676Z,100801.41
2023-03-04T17:23:43.644Z,100804.59
2023-03-04T17:26:11.782Z,100807.00
2023-03-04T17:28:39.546Z,100814.66
2023-03-04T17:31:12.056Z,100809.31
2023-03-04T17:33:39.838Z,100816.13
2023-03-04T17:36:11.819Z,100814.28
2023-03-04T17:38:39.944Z,100810.59
2023-03-04T17:41:10.406Z,100815.53
2023-03-04T17:43:38.517Z,100812.88
2023-03-04T17:46:07.460Z,100806.84
2023-03-04T17:48:35.451Z,100811.06
2023-03-04T17:51:03.069Z,100813.59
2023-03-04T17:53:34.380Z,100814.25
2023-03-04T17:56:02.688Z,100818.38
2023-03-04T17:58:30.522Z,100813.97
2023-03-04T18:01:06.480Z,100816.50
2023-03-04T18:03:34.570Z,100819.84
2023-03-04T18:06:02.297Z,100822.25
2023-03-04T18:08:30.322Z,100817.84
2023-03-04T18:10:58.454Z,100810.72
2023-03-04T18:13:26.099Z,100815.53
2023-03-04T18:15:53.669Z,100821.41
2023-03-04T18:18:21.843Z,100815.19
2023-03-04T18:20:49.803Z,100820.28
2023-03-04T18:23:18.985Z,100823.69
2023-03-04T18:25:46.785Z,100821.97
2023-03-04T18:28:14.786Z,100822.94
2023-03-04T18:30:43.872Z,100827.28
2023-03-04T18:33:11.903Z,100825.53
2023-03-04T18:35:39.573Z,100826.38
2023-03-04T18:38:08.085Z,100826.97
2023-03-04T18:40:36.160Z,100824.13
2023-03-04T18:43:04.643Z,100818.75
2023-03-04T18:45:32.579Z,100820.22
2023-03-04T18:48:00.268Z,100814.91
2023-03-04T18:50:27.950Z,100817.19
2023-03-04T18:52:56.197Z,100817.03
2023-03-04T18:55:23.370Z,100825.66
2023-03-04T18:57:52.530Z,100819.66
2023-03-04T19:00:21.229Z,100815.09
2023-03-04T19:02:56.794Z,100828.59
2023-03-04T19:05:27.502Z,100819.88
2023-03-04T19:07:55.532Z,100828.53
2023-03-04T19:10:23.922Z,100824.84
2023-03-04T19:12:51.695Z,100826.06
2023-03-04T19:15:20.204Z,100825.63
2023-03-04T19:17:48.193Z,100832.03
2023-03-04T19:20:16.487Z,100839.38
2023-03-04T19:22:44.575Z,100838.25
2023-03-04T19:25:11.960Z,100831.06
2023-03-04T19:27:39.873Z,100841.34
2023-03-04T19:30:09.553Z,100833.78
2023-03-04T19:32:37.054Z,100835.69
2023-03-04T19:35:05.531Z,100834.88
2023-03-04T19:37:33.640Z,100834.50
2023-03-04T19:40:03.439Z,100842.00
2023-03-04T19:44:07.726Z,100837.06
2023-03-04T20:02:37.254Z,100848.53
2023-03-04T20:55:37.636Z,100875.00
2023-03-04T21:17:35.013Z,100862.78
2023-03-04T21:32:57.410Z,100862.69
